Time;durP1;ratioP1;P1;durP2;ratioP2;P2;SDS_P1;SDS_P2;PMS_P1;PMS_P2;Temp;Humidity;BMP_temperature;BMP_pressure;BME280_temperature;BME280_humidity;BME280_pressure;Samples;Min_cycle;Max_cycle;Signal;HPM_P1;HPM_P2
2020/12/04 00:02:21;;;;;;;20.83;13.90;;;-0.70;99.90;;;;;;5045704;28;20544;-54
2020/12/04 00:04:46;;;;;;;22.93;13.53;;;-0.80;99.90;;;;;;5045801;28;20191;-53
2020/12/04 00:07:12;;;;;;;22.47;13.70;;;-0.80;99.90;;;;;;5055087;28;20215;-53
2020/12/04 00:09:41;;;;;;;113.40;35.77;;;-0.80;99.90;;;;;;5057404;28;20174;-57
2020/12/04 00:12:07;;;;;;;283.87;77.57;;;-0.80;99.90;;;;;;5053660;28;20647;-55
2020/12/04 00:14:32;;;;;;;40.27;19.20;;;-0.90;99.90;;;;;;5053857;28;20460;-57
2020/12/04 00:16:58;;;;;;;209.23;82.30;;;-0.80;99.90;;;;;;5054046;28;20191;-56
2020/12/04 00:19:24;;;;;;;116.03;60.53;;;-0.90;99.90;;;;;;5052885;28;20622;-54
2020/12/04 00:21:50;;;;;;;59.47;39.03;;;-0.90;99.90;;;;;;5052824;28;20199;-54
2020/12/04 00:24:16;;;;;;;43.30;28.63;;;-1.10;99.90;;;;;;5055386;28;20233;-54
2020/12/04 00:26:41;;;;;;;45.90;30.77;;;-1.10;99.90;;;;;;5055013;28;20434;-54
2020/12/04 00:29:07;;;;;;;39.00;25.33;;;-1.10;99.90;;;;;;5055564;28;20189;-53
2020/12/04 00:31:33;;;;;;;36.93;22.30;;;-1.10;99.90;;;;;;5055738;28;20176;-53
2020/12/04 00:33:59;;;;;;;36.50;22.23;;;-1.00;99.90;;;;;;5057082;28;20550;-53
2020/12/04 00:36:28;;;;;;;36.60;22.60;;;-1.00;99.90;;;;;;5054389;28;20229;-54
2020/12/04 00:38:54;;;;;;;38.60;22.17;;;-1.20;99.90;;;;;;5056216;28;20750;-53
2020/12/04 00:41:20;;;;;;;36.87;21.83;;;-1.10;99.90;;;;;;5055403;28;20443;-54
2020/12/04 00:43:45;;;;;;;37.00;21.33;;;-1.10;99.90;;;;;;5057788;28;20440;-54
2020/12/04 00:46:12;;;;;;;35.33;21.30;;;-1.10;99.90;;;;;;5055004;28;20178;-54
2020/12/04 00:48:38;;;;;;;33.77;20.90;;;-1.10;99.90;;;;;;5057243;28;20218;-55
2020/12/04 00:51:03;;;;;;;34.20;21.00;;;-1.10;99.90;;;;;;5055537;28;20865;-53
2020/12/04 00:53:29;;;;;;;36.63;20.67;;;-1.00;99.90;;;;;;5055565;28;20163;-53
2020/12/04 00:55:54;;;;;;;38.77;22.10;;;-1.00;99.90;;;;;;5057780;28;20206;-54
2020/12/04 00:58:20;;;;;;;33.40;21.13;;;-1.10;99.90;;;;;;5056046;28;20183;-55
2020/12/04 01:00:46;;;;;;;35.17;21.40;;;-1.10;99.90;;;;;;5057057;28;20175;-54
2020/12/04 01:03:11;;;;;;;34.37;21.43;;;-1.00;99.90;;;;;;5056103;28;20405;-54
2020/12/04 01:05:37;;;;;;;33.03;20.40;;;-1.00;99.90;;;;;;5056044;28;20214;-53
2020/12/04 01:08:02;;;;;;;33.00;20.17;;;-1.00;99.90;;;;;;5055674;28;20654;-53
2020/12/04 01:10:28;;;;;;;32.60;20.33;;;-1.00;99.90;;;;;;5055456;28;20228;-55
2020/12/04 01:12:54;;;;;;;33.77;20.13;;;-1.00;99.90;;;;;;5053845;28;20655;-55
2020/12/04 01:15:19;;;;;;;32.97;19.60;;;-1.00;99.90;;;;;;5054983;28;20202;-54
2020/12/04 01:17:44;;;;;;;32.57;20.20;;;-1.00;99.90;;;;;;5053953;28;20191;-53
2020/12/04 01:20:10;;;;;;;40.07;23.30;;;-1.10;99.90;;;;;;5056012;28;20178;-53
2020/12/04 01:22:36;;;;;;;34.83;21.10;;;-1.10;99.90;;;;;;5054859;28;20632;-53
2020/12/04 01:25:01;;;;;;;33.03;20.73;;;-1.10;99.90;;;;;;5055427;28;20657;-54
2020/12/04 01:27:27;;;;;;;35.73;22.50;;;-1.00;99.90;;;;;;5054764;28;20199;-55
2020/12/04 01:29:52;;;;;;;36.20;22.00;;;-1.10;99.90;;;;;;5054940;28;20175;-53
2020/12/04 01:32:18;;;;;;;36.93;22.00;;;-1.10;99.90;;;;;;5053922;28;20183;-53
2020/12/04 01:34:43;;;;;;;34.30;19.97;;;-1.20;99.90;;;;;;5036389;28;20735;-55
2020/12/04 01:37:09;;;;;;;34.03;21.33;;;-1.10;99.90;;;;;;5054287;28;20663;-53
2020/12/04 01:39:34;;;;;;;36.57;21.97;;;-1.10;99.90;;;;;;5056073;28;20266;-55
2020/12/04 01:42:00;;;;;;;34.20;20.93;;;-1.30;99.90;;;;;;5056441;28;20175;-53
2020/12/04 01:44:25;;;;;;;34.13;19.23;;;-1.30;99.90;;;;;;5055143;28;20261;-52
2020/12/04 01:46:51;;;;;;;34.17;20.80;;;-1.30;99.90;;;;;;5053944;28;20199;-53
2020/12/04 01:49:17;;;;;;;35.43;22.00;;;-1.30;99.90;;;;;;5053799;28;20186;-55
2020/12/04 01:51:43;;;;;;;30.97;20.00;;;-1.20;99.90;;;;;;5054758;28;20178;-54
2020/12/04 01:54:08;;;;;;;31.50;20.07;;;-1.20;99.90;;;;;;5055387;28;20558;-53
2020/12/04 01:56:38;;;;;;;35.93;21.53;;;-1.10;99.90;;;;;;5053283;28;20195;-53
2020/12/04 01:59:04;;;;;;;31.90;19.87;;;-1.30;99.90;;;;;;5056589;28;20194;-54
2020/12/04 02:01:34;;;;;;;32.77;20.27;;;-1.30;99.90;;;;;;5054102;28;20983;-52
2020/12/04 02:04:00;;;;;;;32.77;19.87;;;-1.20;99.90;;;;;;5054871;28;20414;-52
2020/12/04 02:06:39;;;;;;;30.67;19.57;;;-1.30;99.90;;;;;;5055200;28;20440;-54
2020/12/04 02:09:09;;;;;;;37.23;22.47;;;-1.40;99.90;;;;;;5054764;28;20163;-55
2020/12/04 02:11:35;;;;;;;36.37;21.40;;;-1.30;99.90;;;;;;5054543;28;20444;-54
2020/12/04 02:14:01;;;;;;;34.27;21.20;;;-1.20;99.90;;;;;;5055863;28;20468;-53
2020/12/04 02:16:28;;;;;;;29.87;17.87;;;-1.20;99.90;;;;;;5054182;28;20472;-54
2020/12/04 02:18:53;;;;;;;20.40;13.53;;;-1.20;99.90;;;;;;5055403;28;20232;-57
2020/12/04 02:21:19;;;;;;;20.27;13.30;;;-1.20;99.90;;;;;;5057343;28;20796;-59
2020/12/04 02:23:47;;;;;;;19.80;12.93;;;-1.20;99.90;;;;;;5047958;28;20725;-52
2020/12/04 02:26:16;;;;;;;23.57;14.13;;;-1.20;99.90;;;;;;5036975;28;20414;-54
2020/12/04 02:28:41;;;;;;;22.10;13.93;;;-1.10;99.90;;;;;;5038626;28;20411;-54
2020/12/04 02:31:07;;;;;;;19.33;12.67;;;-1.20;99.90;;;;;;5037722;28;20464;-53
2020/12/04 02:33:33;;;;;;;20.90;13.43;;;-1.20;99.90;;;;;;5038672;28;20218;-56
2020/12/04 02:36:00;;;;;;;21.03;12.80;;;-1.30;99.90;;;;;;5039602;28;20423;-57
2020/12/04 02:38:26;;;;;;;21.03;13.53;;;-1.20;99.90;;;;;;5037364;28;20448;-57
2020/12/04 02:40:52;;;;;;;18.90;12.97;;;-1.30;99.90;;;;;;5038281;28;20973;-55
2020/12/04 02:43:19;;;;;;;17.97;11.87;;;-1.30;99.90;;;;;;5037766;28;20175;-53
2020/12/04 02:45:45;;;;;;;21.97;13.57;;;-1.40;99.90;;;;;;5037110;28;20403;-54
2020/12/04 02:48:11;;;;;;;19.90;13.60;;;-1.40;99.90;;;;;;5037281;28;20966;-55
2020/12/04 02:50:37;;;;;;;25.33;15.00;;;-1.50;99.90;;;;;;5037323;28;20862;-57
2020/12/04 02:53:03;;;;;;;23.57;14.23;;;-1.60;99.90;;;;;;5037375;28;20413;-55
2020/12/04 02:55:29;;;;;;;26.47;15.93;;;-1.60;99.90;;;;;;5037516;28;20218;-54
2020/12/04 02:57:54;;;;;;;23.03;15.23;;;-1.50;99.90;;;;;;5037927;28;20431;-53
2020/12/04 03:00:20;;;;;;;21.47;14.53;;;-1.60;99.90;;;;;;5036634;28;20625;-54
2020/12/04 03:02:45;;;;;;;26.00;15.40;;;-1.50;99.90;;;;;;5036581;28;20568;-53
2020/12/04 03:05:11;;;;;;;21.80;13.97;;;-1.50;99.90;;;;;;5038063;28;20200;-56
2020/12/04 03:07:37;;;;;;;19.60;13.27;;;-1.50;99.90;;;;;;5036562;28;20274;-54
2020/12/04 03:10:04;;;;;;;21.50;12.37;;;-1.50;99.90;;;;;;5037075;28;20564;-53
2020/12/04 03:12:30;;;;;;;18.20;11.67;;;-1.50;99.90;;;;;;5037988;28;20631;-57
2020/12/04 03:14:56;;;;;;;18.83;12.07;;;-1.50;99.90;;;;;;5036302;28;20461;-53
2020/12/04 03:17:21;;;;;;;14.80;9.87;;;-1.50;99.90;;;;;;5036242;28;20659;-53
2020/12/04 03:19:47;;;;;;;17.37;10.93;;;-1.50;99.90;;;;;;5037790;28;20207;-53
2020/12/04 03:22:12;;;;;;;16.47;10.43;;;-1.50;99.90;;;;;;5036836;28;20225;-56
2020/12/04 03:24:38;;;;;;;17.60;11.60;;;-1.50;99.90;;;;;;5037461;28;20237;-54
2020/12/04 03:27:03;;;;;;;18.57;11.67;;;-1.50;99.90;;;;;;5036504;28;20686;-56
2020/12/04 03:29:29;;;;;;;21.00;11.50;;;-1.50;99.90;;;;;;5036296;28;20564;-53
2020/12/04 03:31:54;;;;;;;20.60;11.73;;;-1.50;99.90;;;;;;5036130;28;20176;-53
2020/12/04 03:34:20;;;;;;;16.20;11.43;;;-1.50;99.90;;;;;;5036377;28;20204;-54
2020/12/04 03:36:46;;;;;;;18.57;11.27;;;-1.60;99.90;;;;;;5038008;28;20606;-54
2020/12/04 03:39:11;;;;;;;16.87;10.43;;;-1.60;99.90;;;;;;5036845;28;20179;-55
2020/12/04 03:41:37;;;;;;;17.07;10.97;;;-1.60;99.90;;;;;;5037668;28;20182;-54
2020/12/04 03:44:02;;;;;;;17.10;11.53;;;-1.60;99.90;;;;;;5046146;28;20274;-56
2020/12/04 03:46:28;;;;;;;17.03;11.37;;;-1.60;99.90;;;;;;5055959;28;20222;-57
2020/12/04 03:48:53;;;;;;;16.63;11.50;;;-1.70;99.90;;;;;;5056649;28;20171;-54
2020/12/04 03:51:19;;;;;;;18.00;11.07;;;-1.80;99.90;;;;;;5056279;28;20183;-53
2020/12/04 03:53:46;;;;;;;17.00;10.93;;;-1.80;99.90;;;;;;5055626;28;20632;-56
2020/12/04 03:56:12;;;;;;;19.73;11.93;;;-1.80;99.90;;;;;;5056167;28;20171;-54
2020/12/04 03:58:38;;;;;;;17.00;11.43;;;-1.80;99.90;;;;;;5056631;28;20448;-56
2020/12/04 04:01:04;;;;;;;16.00;11.13;;;-1.80;99.90;;;;;;5056591;28;20178;-59
2020/12/04 04:03:29;;;;;;;20.23;11.80;;;-1.80;99.90;;;;;;5056861;28;20615;-54
2020/12/04 04:05:55;;;;;;;17.63;11.40;;;-1.80;99.90;;;;;;5058760;28;20253;-56
2020/12/04 04:08:20;;;;;;;16.00;11.23;;;-1.70;99.90;;;;;;5055288;28;20206;-53
2020/12/04 04:10:46;;;;;;;17.53;11.20;;;-1.70;99.90;;;;;;5055470;28;20214;-54
2020/12/04 04:13:11;;;;;;;15.73;10.27;;;-1.60;99.90;;;;;;5056388;28;20207;-54
2020/12/04 04:15:37;;;;;;;17.97;10.63;;;-1.50;99.90;;;;;;5055940;28;20214;-53
2020/12/04 04:18:02;;;;;;;18.83;11.23;;;-1.50;99.90;;;;;;5056103;28;20191;-58
2020/12/04 04:20:29;;;;;;;15.57;10.50;;;-1.50;99.90;;;;;;5055011;28;20186;-54
2020/12/04 04:22:54;;;;;;;14.23;9.70;;;-1.60;99.90;;;;;;5057797;28;20226;-53
2020/12/04 04:25:20;;;;;;;15.03;9.83;;;-1.60;99.90;;;;;;5055586;28;20409;-54
2020/12/04 04:27:46;;;;;;;16.93;9.87;;;-1.60;99.90;;;;;;5055304;28;20264;-56
2020/12/04 04:30:11;;;;;;;17.30;10.73;;;-1.50;99.90;;;;;;5055636;28;20183;-53
2020/12/04 04:32:37;;;;;;;14.97;9.97;;;-1.50;99.90;;;;;;5055074;28;20646;-57
2020/12/04 04:35:04;;;;;;;14.70;9.73;;;-1.40;99.90;;;;;;5055139;28;20203;-58
2020/12/04 04:37:30;;;;;;;22.10;13.53;;;-1.50;99.90;;;;;;5055389;28;20195;-56
2020/12/04 04:39:56;;;;;;;15.37;10.37;;;-1.40;99.90;;;;;;5054812;28;20749;-54
2020/12/04 04:42:22;;;;;;;13.53;9.10;;;-1.50;99.90;;;;;;5056471;28;20493;-53
2020/12/04 04:44:49;;;;;;;13.60;9.23;;;-1.60;99.90;;;;;;5055465;28;20464;-56
2020/12/04 04:47:19;;;;;;;14.17;9.70;;;-1.60;99.90;;;;;;5054950;28;20274;-54
2020/12/04 04:49:47;;;;;;;14.90;9.67;;;-1.70;99.90;;;;;;5054593;28;20416;-54
2020/12/04 04:52:15;;;;;;;14.47;9.80;;;-1.60;99.90;;;;;;5055500;28;20436;-55
2020/12/04 04:54:45;;;;;;;14.43;8.63;;;-1.50;99.90;;;;;;5054980;28;20548;-54
2020/12/04 04:57:14;;;;;;;13.83;9.07;;;-1.50;99.90;;;;;;5056232;28;20500;-54
2020/12/04 04:59:41;;;;;;;14.80;9.70;;;-1.50;99.90;;;;;;5053895;28;20430;-54
2020/12/04 05:02:11;;;;;;;16.20;9.93;;;-1.50;99.90;;;;;;5053023;28;20405;-53
2020/12/04 05:05:02;;;;;;;14.03;9.77;;;-1.50;99.90;;;;;;5060532;28;20426;-52
2020/12/04 05:07:33;;;;;;;14.67;9.73;;;-1.50;99.90;;;;;;5053510;28;20441;-54
2020/12/04 05:10:20;;;;;;;15.27;10.30;;;-1.60;99.90;;;;;;5056698;28;20876;-57
2020/12/04 05:12:59;;;;;;;17.17;11.17;;;-1.70;99.90;;;;;;5044006;28;20519;-56
2020/12/04 05:15:29;;;;;;;15.10;9.97;;;-1.70;99.90;;;;;;5075000;28;20946;-54
2020/12/04 05:18:17;;;;;;;15.20;9.60;;;-1.70;99.90;;;;;;5050384;28;21070;-53
2020/12/04 05:20:51;;;;;;;17.70;11.17;;;-1.70;99.90;;;;;;5046847;28;20750;-55
2020/12/04 05:23:17;;;;;;;17.37;10.03;;;-1.70;99.90;;;;;;5055005;28;20405;-54
2020/12/04 05:25:45;;;;;;;13.73;9.43;;;-1.60;99.90;;;;;;5061364;28;20422;-55
2020/12/04 05:28:17;;;;;;;15.07;9.83;;;-1.60;99.90;;;;;;5053976;28;20450;-56
2020/12/04 05:31:11;;;;;;;14.13;9.20;;;-1.60;99.90;;;;;;5054344;28;20424;-57
2020/12/04 05:33:37;;;;;;;13.83;8.90;;;-1.40;99.90;;;;;;4992666;28;20424;-53
2020/12/04 05:36:04;;;;;;;13.60;9.37;;;-1.40;99.90;;;;;;4994007;28;20468;-53
2020/12/04 05:38:30;;;;;;;15.73;9.97;;;-1.30;99.90;;;;;;4991125;28;20269;-57
2020/12/04 05:41:07;;;;;;;14.00;9.00;;;-1.30;99.90;;;;;;4991730;28;20535;-53
2020/12/04 05:43:39;;;;;;;13.10;8.83;;;-1.30;99.90;;;;;;4992835;28;20268;-55
2020/12/04 05:46:25;;;;;;;15.03;9.27;;;-1.20;99.90;;;;;;4992616;28;20416;-53
2020/12/04 05:49:08;;;;;;;15.77;10.60;;;-1.20;99.90;;;;;;4992570;28;20408;-53
2020/12/04 05:51:39;;;;;;;15.57;11.03;;;-1.20;99.90;;;;;;4992358;28;20456;-54
2020/12/04 05:54:07;;;;;;;16.70;10.47;;;-1.20;99.90;;;;;;4993901;28;20452;-55
2020/12/04 05:56:33;;;;;;;13.57;9.13;;;-1.10;99.90;;;;;;4997331;28;20486;-57
2020/12/04 05:59:02;;;;;;;13.63;9.63;;;-1.20;99.90;;;;;;4996984;28;20499;-54
2020/12/04 06:01:28;;;;;;;15.13;9.40;;;-1.30;99.90;;;;;;4996207;28;20768;-56
2020/12/04 06:03:55;;;;;;;17.10;10.53;;;-1.40;99.90;;;;;;4996520;28;20416;-52
2020/12/04 06:06:31;;;;;;;14.87;9.80;;;-1.50;99.90;;;;;;4997337;28;20177;-55
2020/12/04 06:09:07;;;;;;;17.40;10.90;;;-1.50;99.90;;;;;;5000184;28;20447;-56
2020/12/04 06:11:35;;;;;;;24.77;17.93;;;-1.50;99.90;;;;;;5060028;28;20437;-53
2020/12/04 06:14:01;;;;;;;15.43;10.60;;;-1.40;99.90;;;;;;5055159;28;20430;-55
2020/12/04 06:16:28;;;;;;;16.20;10.50;;;-1.60;99.90;;;;;;5046935;28;20441;-53
2020/12/04 06:18:54;;;;;;;15.77;11.57;;;-1.70;99.90;;;;;;5048592;28;20405;-59
2020/12/04 06:21:45;;;;;;;27.50;18.47;;;-1.80;99.90;;;;;;5057672;28;20408;-53
2020/12/04 06:24:10;;;;;;;21.97;15.50;;;-1.80;99.90;;;;;;5038252;28;20204;-57
2020/12/04 06:26:46;;;;;;;21.60;13.77;;;-1.70;99.90;;;;;;5038314;28;20449;-55
2020/12/04 06:29:12;;;;;;;24.93;15.20;;;-1.60;99.90;;;;;;5049811;28;20712;-55
2020/12/04 06:31:38;;;;;;;30.03;18.23;;;-1.50;99.90;;;;;;5057329;28;20452;-53
2020/12/04 06:34:16;;;;;;;23.37;15.07;;;-1.40;99.90;;;;;;5050198;28;20284;-54
2020/12/04 06:36:43;;;;;;;23.33;15.40;;;-1.40;99.90;;;;;;5049589;28;20199;-55
2020/12/04 06:39:26;;;;;;;27.20;17.47;;;-1.20;99.90;;;;;;5057237;28;20881;-56
2020/12/04 06:41:51;;;;;;;26.00;15.53;;;-1.20;99.90;;;;;;5037294;28;20387;-56
2020/12/04 06:44:22;;;;;;;25.53;16.43;;;-1.10;99.90;;;;;;5041378;28;20420;-54
2020/12/04 06:46:49;;;;;;;21.83;15.07;;;-1.00;99.90;;;;;;5052843;28;20211;-54
2020/12/04 06:52:09;;;;;;;22.70;14.40;;;-0.80;99.90;;;;;;5056136;28;20397;-57
2020/12/04 06:54:40;;;;;;;22.73;15.30;;;-0.80;99.90;;;;;;5037269;28;20441;-56
2020/12/04 06:57:07;;;;;;;25.47;15.47;;;-0.70;99.90;;;;;;5038531;28;20434;-56
2020/12/04 06:59:35;;;;;;;22.13;13.97;;;-0.60;99.90;;;;;;5037570;28;20493;-58
2020/12/04 07:02:04;;;;;;;19.43;12.93;;;-0.50;99.90;;;;;;5041642;28;20422;-59
2020/12/04 07:04:30;;;;;;;18.90;11.47;;;-0.40;99.90;;;;;;5041907;28;20433;-56
2020/12/04 07:07:15;;;;;;;18.77;10.43;;;-0.40;99.90;;;;;;5051381;28;20957;-54
2020/12/04 07:09:43;;;;;;;17.67;12.10;;;-0.40;99.90;;;;;;5046083;28;20426;-57
2020/12/04 07:12:14;;;;;;;20.33;13.83;;;-0.40;99.90;;;;;;5055035;28;20483;-57
2020/12/04 07:14:41;;;;;;;19.63;13.10;;;-0.50;99.90;;;;;;5053627;28;20461;-55
2020/12/04 07:17:07;;;;;;;19.60;12.87;;;-0.50;99.90;;;;;;5042722;28;21059;-56
2020/12/04 07:19:33;;;;;;;21.17;13.70;;;-0.40;99.90;;;;;;5050749;28;20516;-60
2020/12/04 07:21:58;;;;;;;20.07;13.17;;;-0.30;99.90;;;;;;5052398;28;20629;-53
2020/12/04 07:24:24;;;;;;;44.10;23.73;;;-0.30;99.90;;;;;;5056221;28;20706;-58
2020/12/04 07:26:52;;;;;;;35.93;18.63;;;-0.20;99.90;;;;;;5043556;28;20207;-55
2020/12/04 07:29:18;;;;;;;14.80;9.63;;;-0.10;99.90;;;;;;5056041;28;20512;-55
2020/12/04 07:31:46;;;;;;;16.27;10.77;;;-0.10;99.90;;;;;;5057290;28;20433;-52
2020/12/04 07:34:12;;;;;;;23.23;14.13;;;0.00;99.90;;;;;;5045259;28;20215;-53
2020/12/04 07:36:48;;;;;;;42.67;22.90;;;0.00;99.90;;;;;;5056068;28;20547;-56
2020/12/04 07:39:22;;;;;;;19.80;13.10;;;0.00;99.90;;;;;;5053407;28;20473;-52
2020/12/04 07:41:48;;;;;;;12.80;8.77;;;-0.10;99.90;;;;;;5056441;28;20464;-54
2020/12/04 07:44:14;;;;;;;11.47;7.80;;;0.00;99.90;;;;;;5054307;28;20531;-55
2020/12/04 07:46:40;;;;;;;13.30;8.93;;;0.00;99.90;;;;;;5055142;28;20885;-53
2020/12/04 07:49:11;;;;;;;13.83;8.77;;;0.00;99.90;;;;;;5053279;28;20198;-57
2020/12/04 07:51:41;;;;;;;9.90;7.10;;;0.40;99.90;;;;;;5048129;28;20179;-55
2020/12/04 07:54:23;;;;;;;10.77;7.30;;;1.20;99.90;;;;;;5055764;28;20470;-58
2020/12/04 07:56:57;;;;;;;12.97;8.93;;;3.10;99.90;;;;;;5055403;28;20452;-60
2020/12/04 07:59:28;;;;;;;10.17;7.63;;;5.50;99.90;;;;;;5044861;28;20178;-60
2020/12/04 08:01:53;;;;;;;10.47;8.10;;;7.80;95.50;;;;;;5050983;28;20555;-54
2020/12/04 08:04:19;;;;;;;10.63;8.70;;;10.10;90.80;;;;;;5057437;28;20642;-56
2020/12/04 08:06:48;;;;;;;13.63;9.97;;;12.30;83.60;;;;;;5055933;28;20210;-60
2020/12/04 08:09:19;;;;;;;11.80;9.70;;;14.40;74.60;;;;;;5055654;28;20195;-57
2020/12/04 08:11:54;;;;;;;10.93;9.60;;;16.40;67.20;;;;;;5056735;28;20224;-58
2020/12/04 08:14:28;;;;;;;13.80;12.27;;;18.20;60.50;;;;;;5055586;28;20289;-58
2020/12/04 08:16:58;;;;;;;12.60;11.27;;;19.60;54.80;;;;;;5048031;28;20297;-56
2020/12/04 08:19:28;;;;;;;11.63;10.40;;;20.50;52.80;;;;;;5049000;28;20178;-60
2020/12/04 08:21:59;;;;;;;17.07;13.80;;;20.90;50.10;;;;;;5048893;28;20228;-54
2020/12/04 08:24:33;;;;;;;12.60;11.20;;;19.40;45.20;;;;;;5041052;28;20274;-58
2020/12/04 08:27:03;;;;;;;24.40;18.10;;;18.40;47.90;;;;;;5041312;28;20202;-56
2020/12/04 08:29:29;;;;;;;16.60;13.43;;;17.80;48.90;;;;;;5035171;28;20187;-61
2020/12/04 08:32:24;;;;;;;12.50;10.23;;;17.20;50.00;;;;;;5036000;28;20258;-56
2020/12/04 08:34:50;;;;;;;16.90;13.67;;;16.80;51.40;;;;;;4988420;28;20213;-57
2020/12/04 08:37:17;;;;;;;13.83;11.30;;;16.50;51.80;;;;;;4988961;28;20539;-56
2020/12/04 08:39:48;;;;;;;15.07;11.60;;;17.00;52.60;;;;;;4975912;28;20189;-55
2020/12/04 08:42:32;;;;;;;16.90;13.10;;;17.80;51.30;;;;;;4986316;28;20196;-58
2020/12/04 08:44:59;;;;;;;13.53;11.93;;;18.50;50.50;;;;;;4974880;28;20194;-59
2020/12/04 08:47:29;;;;;;;11.40;10.20;;;19.20;50.00;;;;;;4974469;28;20235;-57
2020/12/04 08:49:55;;;;;;;13.20;10.67;;;20.00;49.30;;;;;;4974547;28;20289;-61
2020/12/04 08:52:40;;;;;;;11.67;10.43;;;21.20;48.40;;;;;;4975617;28;20749;-59
2020/12/04 08:55:16;;;;;;;11.43;10.18;;;23.10;45.50;;;;;;4986517;28;20242;-61
2020/12/04 08:57:42;;;;;;;11.95;10.75;;;24.40;44.00;;;;;;4992373;28;20208;-56
2020/12/04 09:00:11;;;;;;;10.30;9.30;;;25.10;42.80;;;;;;4993831;28;20264;-58
2020/12/04 09:02:38;;;;;;;8.93;8.02;;;26.20;41.40;;;;;;4992818;28;20196;-60
2020/12/04 09:05:05;;;;;;;12.02;10.82;;;27.10;40.30;;;;;;4993047;28;20700;-58
2020/12/04 09:07:30;;;;;;;10.93;9.93;;;28.20;38.90;;;;;;4976749;28;20214;-56
2020/12/04 09:09:56;;;;;;;8.75;7.85;;;29.20;37.40;;;;;;4974705;28;20180;-60
2020/12/04 09:12:24;;;;;;;9.40;8.50;;;30.30;35.70;;;;;;5049526;28;20207;-56
2020/12/04 09:14:50;;;;;;;8.77;7.97;;;30.80;34.20;;;;;;5054385;28;20210;-58
2020/12/04 09:17:16;;;;;;;9.52;8.63;;;31.20;33.00;;;;;;5039355;28;20203;-58
2020/12/04 09:19:41;;;;;;;9.65;8.75;;;31.10;31.70;;;;;;5033930;28;20202;-59
2020/12/04 09:22:08;;;;;;;9.25;8.35;;;30.00;32.40;;;;;;5048014;28;20176;-56
2020/12/04 09:24:33;;;;;;;9.15;8.25;;;28.40;33.20;;;;;;5055563;28;20260;-57
2020/12/04 09:26:59;;;;;;;11.35;10.15;;;26.40;34.20;;;;;;5043327;28;20223;-57
2020/12/04 09:29:24;;;;;;;10.95;9.20;;;24.20;35.80;;;;;;5035677;28;20188;-52
2020/12/04 09:31:50;;;;;;;10.67;9.47;;;22.30;37.60;;;;;;5042884;28;20662;-53
2020/12/04 09:34:16;;;;;;;10.83;8.93;;;20.60;39.30;;;;;;5047281;28;20667;-52
2020/12/04 09:36:41;;;;;;;10.00;9.00;;;19.20;41.00;;;;;;5056238;28;20190;-58
2020/12/04 09:39:07;;;;;;;11.20;9.37;;;17.90;42.40;;;;;;5053774;28;20187;-60
2020/12/04 09:41:32;;;;;;;10.83;9.73;;;17.70;44.40;;;;;;5064989;28;20179;-52
2020/12/04 09:43:58;;;;;;;10.60;9.13;;;15.70;45.40;;;;;;5053556;28;20251;-54
2020/12/04 09:46:23;;;;;;;11.90;9.47;;;15.00;46.80;;;;;;5054102;28;20197;-59
2020/12/04 09:48:49;;;;;;;12.47;9.63;;;14.50;49.10;;;;;;5052950;28;20625;-56
2020/12/04 09:51:14;;;;;;;12.40;9.57;;;14.50;49.50;;;;;;5050084;28;20642;-58
2020/12/04 09:53:40;;;;;;;10.33;9.23;;;15.30;50.80;;;;;;5039312;28;20183;-55
2020/12/04 09:56:05;;;;;;;10.97;9.17;;;17.20;49.20;;;;;;5037181;28;20585;-52
2020/12/04 09:58:31;;;;;;;9.70;8.70;;;18.70;46.00;;;;;;5054106;28;20177;-56
2020/12/04 10:00:56;;;;;;;11.73;9.67;;;18.70;44.70;;;;;;5053530;28;20653;-54
2020/12/04 10:03:22;;;;;;;10.80;9.30;;;18.00;44.20;;;;;;5047500;28;20741;-53
2020/12/04 10:05:47;;;;;;;12.17;10.13;;;16.80;45.50;;;;;;5042196;28;20208;-55
2020/12/04 10:08:13;;;;;;;10.67;9.30;;;15.80;47.20;;;;;;5043113;28;20198;-52
2020/12/04 10:10:38;;;;;;;10.20;8.70;;;15.20;48.90;;;;;;5049514;28;20182;-56
2020/12/04 10:13:04;;;;;;;11.73;9.57;;;15.60;50.50;;;;;;5046268;28;20189;-56
2020/12/04 10:15:29;;;;;;;11.07;9.37;;;15.30;49.60;;;;;;5051599;28;20178;-54
2020/12/04 10:17:55;;;;;;;10.70;9.07;;;15.00;49.50;;;;;;5052818;28;20204;-57
2020/12/04 10:20:20;;;;;;;10.57;8.90;;;14.70;49.80;;;;;;5053440;28;20264;-54
2020/12/04 10:22:46;;;;;;;10.37;8.73;;;14.30;50.80;;;;;;5056159;28;20271;-52
2020/12/04 10:25:12;;;;;;;10.33;8.67;;;13.90;51.00;;;;;;5068658;28;20224;-53
2020/12/04 10:27:38;;;;;;;11.67;9.87;;;13.60;51.70;;;;;;5075119;28;20281;-53
2020/12/04 10:30:04;;;;;;;10.40;8.97;;;13.00;52.30;;;;;;5055634;28;20217;-51
2020/12/04 10:32:29;;;;;;;13.30;9.83;;;12.30;54.00;;;;;;5056081;28;20175;-53
2020/12/04 10:34:56;;;;;;;11.60;9.97;;;11.70;55.90;;;;;;5054794;28;20179;-55
2020/12/04 10:37:21;;;;;;;12.33;9.60;;;11.30;56.70;;;;;;5047874;28;20671;-54
2020/12/04 10:39:47;;;;;;;13.27;9.70;;;10.80;57.50;;;;;;5051333;28;20338;-52
2020/12/04 10:42:13;;;;;;;14.33;9.80;;;10.40;59.00;;;;;;5043143;28;20586;-53
2020/12/04 10:44:38;;;;;;;11.57;9.23;;;10.20;59.90;;;;;;5041967;28;20654;-52
2020/12/04 10:47:04;;;;;;;13.80;10.27;;;9.70;61.80;;;;;;5052305;28;20202;-55
2020/12/04 10:49:29;;;;;;;12.67;9.93;;;9.40;63.50;;;;;;5038201;28;20174;-55
2020/12/04 10:51:56;;;;;;;14.80;9.93;;;9.20;64.90;;;;;;5055023;28;20221;-56
2020/12/04 10:54:22;;;;;;;12.17;10.20;;;9.00;65.80;;;;;;5043750;28;20179;-55
2020/12/04 10:56:47;;;;;;;12.90;10.13;;;8.70;66.80;;;;;;5037294;28;20527;-51
2020/12/04 10:59:13;;;;;;;12.80;10.30;;;8.50;67.70;;;;;;5047505;28;20523;-50
2020/12/04 11:01:49;;;;;;;11.73;9.17;;;8.50;69.00;;;;;;5047501;28;20267;-50
2020/12/04 11:06:58;;;;;;;15.17;12.03;;;8.10;71.30;;;;;;5042062;28;20680;-56
2020/12/04 11:09:24;;;;;;;16.73;13.20;;;7.90;72.80;;;;;;5053029;28;20254;-53
2020/12/04 11:11:49;;;;;;;18.00;13.00;;;7.80;73.50;;;;;;5056211;28;20190;-52
2020/12/04 11:14:15;;;;;;;17.20;13.10;;;7.70;74.20;;;;;;5057486;28;20530;-49
2020/12/04 11:16:42;;;;;;;16.83;13.07;;;7.50;75.00;;;;;;5056378;28;20203;-51
2020/12/04 11:19:09;;;;;;;15.27;12.27;;;7.40;76.00;;;;;;5057889;28;20194;-51
2020/12/04 11:21:35;;;;;;;16.27;12.23;;;7.20;77.10;;;;;;5046724;28;20174;-51
2020/12/04 11:24:00;;;;;;;17.53;12.90;;;7.10;78.00;;;;;;5060887;28;20190;-52
2020/12/04 11:26:26;;;;;;;15.83;11.93;;;7.10;79.00;;;;;;5056240;28;20201;-52
2020/12/04 11:28:51;;;;;;;15.63;12.50;;;7.20;79.70;;;;;;5057603;28;20171;-52
2020/12/04 11:31:17;;;;;;;15.83;12.40;;;7.20;80.10;;;;;;5047506;28;20179;-52
2020/12/04 11:33:42;;;;;;;14.33;11.80;;;7.20;80.60;;;;;;5043438;28;20177;-50
2020/12/04 11:36:08;;;;;;;16.43;12.83;;;7.20;80.70;;;;;;5056522;28;20167;-52
2020/12/04 11:38:33;;;;;;;15.43;11.53;;;7.20;81.30;;;;;;5038613;28;20175;-54
2020/12/04 11:40:59;;;;;;;12.17;10.70;;;7.20;81.70;;;;;;5037294;28;20180;-51
2020/12/04 11:43:25;;;;;;;11.77;8.77;;;7.00;82.10;;;;;;5052026;28;20191;-50
2020/12/04 11:45:50;;;;;;;8.73;7.27;;;6.90;82.70;;;;;;5053437;28;20566;-54
2020/12/04 11:48:16;;;;;;;7.77;6.43;;;6.80;82.90;;;;;;5035714;28;20191;-54
2020/12/04 11:50:41;;;;;;;7.63;6.07;;;6.70;82.50;;;;;;5042425;28;20265;-53
2020/12/04 11:53:07;;;;;;;7.57;5.87;;;6.50;83.50;;;;;;5055249;28;20187;-51
2020/12/04 11:55:32;;;;;;;7.23;5.50;;;6.40;83.60;;;;;;5055946;28;20190;-53
2020/12/04 11:57:58;;;;;;;8.13;6.20;;;6.40;84.10;;;;;;5036914;28;20215;-57
2020/12/04 12:00:23;;;;;;;7.47;5.97;;;6.40;85.10;;;;;;5035721;28;20191;-55
2020/12/04 12:02:49;;;;;;;8.93;5.80;;;6.50;85.20;;;;;;5051731;28;20194;-52
2020/12/04 12:05:14;;;;;;;7.40;5.80;;;6.60;85.40;;;;;;5055212;28;20222;-54
2020/12/04 12:07:41;;;;;;;6.77;5.43;;;6.70;85.60;;;;;;5053562;28;20195;-51
2020/12/04 12:10:07;;;;;;;8.43;6.37;;;6.80;84.70;;;;;;5056510;28;20190;-51
2020/12/04 12:12:32;;;;;;;8.57;5.73;;;7.00;85.00;;;;;;5043053;28;20273;-50
2020/12/04 12:14:58;;;;;;;8.33;5.73;;;7.10;85.00;;;;;;5036626;28;20271;-51
2020/12/04 12:17:23;;;;;;;8.30;6.00;;;7.30;85.20;;;;;;5046169;28;20211;-51
2020/12/04 12:19:49;;;;;;;7.67;6.03;;;7.40;84.10;;;;;;5054839;28;20175;-50
2020/12/04 12:22:14;;;;;;;8.37;6.07;;;7.70;85.50;;;;;;5049793;28;20194;-53
2020/12/04 12:24:41;;;;;;;8.70;6.17;;;8.10;84.60;;;;;;5036636;28;20203;-50
2020/12/04 12:27:08;;;;;;;7.80;6.03;;;8.50;83.50;;;;;;5045554;28;20203;-49
2020/12/04 12:29:33;;;;;;;7.17;5.57;;;8.60;81.60;;;;;;5054869;28;20176;-57
2020/12/04 12:32:00;;;;;;;6.37;5.40;;;8.60;80.80;;;;;;5042572;28;20205;-52
2020/12/04 12:34:59;;;;;;;7.20;5.83;;;8.50;80.80;;;;;;5035534;28;20180;-56
2020/12/04 12:37:12;;;;;;;7.33;5.70;;;8.50;81.20;;;;;;5047553;28;20242;-51
2020/12/04 12:39:39;;;;;;;7.10;5.30;;;8.40;81.20;;;;;;5050002;28;20183;-50
2020/12/04 12:42:09;;;;;;;7.10;5.80;;;8.20;81.40;;;;;;5043079;28;20632;-52